sensor_id;sensor_type;location;lat;lon;timestamp;P1;durP1;ratioP1;P2;durP2;ratioP2
35434;SDS011;21556;55.782;37.528;2023-01-15T00:01:43;12.30;;;8.07;;
35434;SDS011;21556;55.782;37.528;2023-01-15T00:04:02;16.17;;;8.63;;
35434;SDS011;21556;55.782;37.528;2023-01-15T00:06:28;13.33;;;9.07;;
35434;SDS011;21556;55.782;37.528;2023-01-15T00:08:54;13.43;;;9.23;;
35434;SDS011;21556;55.782;37.528;2023-01-15T00:11:20;11.53;;;8.47;;
35434;SDS011;21556;55.782;37.528;2023-01-15T00:13:46;14.00;;;9.63;;
35434;SDS011;21556;55.782;37.528;2023-01-15T00:16:13;15.73;;;9.77;;
35434;SDS011;21556;55.782;37.528;2023-01-15T00:18:39;18.87;;;9.43;;
35434;SDS011;21556;55.782;37.528;2023-01-15T00:21:05;15.90;;;10.27;;
35434;SDS011;21556;55.782;37.528;2023-01-15T00:23:32;15.40;;;8.97;;
35434;SDS011;21556;55.782;37.528;2023-01-15T00:26:17;23.77;;;10.23;;
35434;SDS011;21556;55.782;37.528;2023-01-15T00:29:02;14.80;;;9.80;;
35434;SDS011;21556;55.782;37.528;2023-01-15T00:31:28;16.10;;;9.17;;
35434;SDS011;21556;55.782;37.528;2023-01-15T00:33:55;14.73;;;9.63;;
35434;SDS011;21556;55.782;37.528;2023-01-15T00:36:21;12.50;;;8.03;;
35434;SDS011;21556;55.782;37.528;2023-01-15T00:38:47;17.67;;;9.63;;
35434;SDS011;21556;55.782;37.528;2023-01-15T00:41:12;17.90;;;9.53;;
35434;SDS011;21556;55.782;37.528;2023-01-15T00:43:38;16.50;;;10.30;;
35434;SDS011;21556;55.782;37.528;2023-01-15T00:46:04;18.87;;;10.47;;
35434;SDS011;21556;55.782;37.528;2023-01-15T00:48:33;16.70;;;9.80;;
35434;SDS011;21556;55.782;37.528;2023-01-15T00:50:59;16.70;;;9.30;;
35434;SDS011;21556;55.782;37.528;2023-01-15T00:53:24;13.63;;;8.93;;
35434;SDS011;21556;55.782;37.528;2023-01-15T00:55:50;16.67;;;9.57;;
35434;SDS011;21556;55.782;37.528;2023-01-15T00:58:16;14.07;;;7.90;;
35434;SDS011;21556;55.782;37.528;2023-01-15T01:00:42;15.63;;;9.67;;
35434;SDS011;21556;55.782;37.528;2023-01-15T01:03:07;16.43;;;8.83;;
35434;SDS011;21556;55.782;37.528;2023-01-15T01:05:33;14.60;;;9.20;;
35434;SDS011;21556;55.782;37.528;2023-01-15T01:07:59;16.53;;;9.57;;
35434;SDS011;21556;55.782;37.528;2023-01-15T01:10:25;19.97;;;9.10;;
35434;SDS011;21556;55.782;37.528;2023-01-15T01:12:51;14.23;;;8.97;;
35434;SDS011;21556;55.782;37.528;2023-01-15T01:15:20;16.63;;;8.77;;
35434;SDS011;21556;55.782;37.528;2023-01-15T01:17:46;17.33;;;9.40;;
35434;SDS011;21556;55.782;37.528;2023-01-15T01:20:12;19.20;;;9.10;;
35434;SDS011;21556;55.782;37.528;2023-01-15T01:22:39;19.50;;;10.67;;
35434;SDS011;21556;55.782;37.528;2023-01-15T01:25:05;16.97;;;9.67;;
35434;SDS011;21556;55.782;37.528;2023-01-15T01:27:30;14.93;;;9.23;;
35434;SDS011;21556;55.782;37.528;2023-01-15T01:29:57;13.87;;;8.80;;
35434;SDS011;21556;55.782;37.528;2023-01-15T01:32:24;14.63;;;9.70;;
35434;SDS011;21556;55.782;37.528;2023-01-15T01:34:50;22.60;;;9.93;;
35434;SDS011;21556;55.782;37.528;2023-01-15T01:37:15;13.90;;;8.70;;
35434;SDS011;21556;55.782;37.528;2023-01-15T01:39:41;15.07;;;8.70;;
35434;SDS011;21556;55.782;37.528;2023-01-15T01:42:10;11.70;;;8.73;;
35434;SDS011;21556;55.782;37.528;2023-01-15T01:47:07;13.77;;;8.63;;
35434;SDS011;21556;55.782;37.528;2023-01-15T01:49:34;21.07;;;8.97;;
35434;SDS011;21556;55.782;37.528;2023-01-15T01:52:05;17.07;;;8.23;;
35434;SDS011;21556;55.782;37.528;2023-01-15T01:54:32;18.47;;;9.07;;
35434;SDS011;21556;55.782;37.528;2023-01-15T01:56:59;14.40;;;8.23;;
35434;SDS011;21556;55.782;37.528;2023-01-15T01:59:25;14.13;;;9.03;;
35434;SDS011;21556;55.782;37.528;2023-01-15T02:01:52;15.03;;;8.57;;
35434;SDS011;21556;55.782;37.528;2023-01-15T02:04:19;15.40;;;8.80;;
35434;SDS011;21556;55.782;37.528;2023-01-15T02:06:45;14.80;;;9.17;;
35434;SDS011;21556;55.782;37.528;2023-01-15T02:09:12;14.60;;;8.90;;
35434;SDS011;21556;55.782;37.528;2023-01-15T02:11:38;16.90;;;9.67;;
35434;SDS011;21556;55.782;37.528;2023-01-15T02:14:09;14.27;;;8.83;;
35434;SDS011;21556;55.782;37.528;2023-01-15T02:16:59;14.17;;;8.77;;
35434;SDS011;21556;55.782;37.528;2023-01-15T02:27:17;17.40;;;8.30;;
35434;SDS011;21556;55.782;37.528;2023-01-15T02:35:05;15.37;;;9.60;;
35434;SDS011;21556;55.782;37.528;2023-01-15T02:37:32;13.80;;;6.72;;
35434;SDS011;21556;55.782;37.528;2023-01-15T02:39:59;17.27;;;8.70;;
35434;SDS011;21556;55.782;37.528;2023-01-15T02:42:28;15.53;;;9.23;;
35434;SDS011;21556;55.782;37.528;2023-01-15T02:44:56;17.07;;;9.30;;
35434;SDS011;21556;55.782;37.528;2023-01-15T02:47:25;17.30;;;10.10;;
35434;SDS011;21556;55.782;37.528;2023-01-15T02:49:52;17.27;;;8.75;;
35434;SDS011;21556;55.782;37.528;2023-01-15T02:52:21;13.77;;;8.67;;
35434;SDS011;21556;55.782;37.528;2023-01-15T02:57:14;16.30;;;9.77;;
35434;SDS011;21556;55.782;37.528;2023-01-15T02:59:46;18.07;;;9.47;;
35434;SDS011;21556;55.782;37.528;2023-01-15T03:02:14;16.75;;;9.05;;
35434;SDS011;21556;55.782;37.528;2023-01-15T03:04:52;13.67;;;9.20;;
35434;SDS011;21556;55.782;37.528;2023-01-15T03:07:26;19.38;;;9.13;;
35434;SDS011;21556;55.782;37.528;2023-01-15T03:09:54;16.87;;;8.97;;
35434;SDS011;21556;55.782;37.528;2023-01-15T03:14:55;23.97;;;10.27;;
35434;SDS011;21556;55.782;37.528;2023-01-15T03:17:28;19.45;;;9.45;;
35434;SDS011;21556;55.782;37.528;2023-01-15T03:20:04;17.20;;;9.23;;
35434;SDS011;21556;55.782;37.528;2023-01-15T03:22:33;16.60;;;9.20;;
35434;SDS011;21556;55.782;37.528;2023-01-15T03:25:20;19.83;;;9.90;;
35434;SDS011;21556;55.782;37.528;2023-01-15T03:27:51;22.03;;;10.13;;
35434;SDS011;21556;55.782;37.528;2023-01-15T03:32:45;18.20;;;8.87;;
35434;SDS011;21556;55.782;37.528;2023-01-15T03:37:55;13.20;;;8.70;;
35434;SDS011;21556;55.782;37.528;2023-01-15T03:40:22;14.67;;;8.33;;
35434;SDS011;21556;55.782;37.528;2023-01-15T03:42:56;20.10;;;9.90;;
35434;SDS011;21556;55.782;37.528;2023-01-15T03:45:45;18.87;;;9.63;;
35434;SDS011;21556;55.782;37.528;2023-01-15T03:48:20;17.20;;;9.27;;
35434;SDS011;21556;55.782;37.528;2023-01-15T03:50:49;22.77;;;9.37;;
35434;SDS011;21556;55.782;37.528;2023-01-15T03:53:22;17.73;;;9.02;;
35434;SDS011;21556;55.782;37.528;2023-01-15T03:55:58;16.30;;;9.03;;
35434;SDS011;21556;55.782;37.528;2023-01-15T03:58:31;18.67;;;9.00;;
35434;SDS011;21556;55.782;37.528;2023-01-15T04:01:00;16.13;;;9.50;;
35434;SDS011;21556;55.782;37.528;2023-01-15T04:03:28;18.42;;;9.02;;
35434;SDS011;21556;55.782;37.528;2023-01-15T04:05:56;17.88;;;9.90;;
35434;SDS011;21556;55.782;37.528;2023-01-15T04:08:24;21.42;;;10.75;;
35434;SDS011;21556;55.782;37.528;2023-01-15T04:10:55;14.73;;;9.57;;
35434;SDS011;21556;55.782;37.528;2023-01-15T04:13:22;17.33;;;9.37;;
35434;SDS011;21556;55.782;37.528;2023-01-15T04:15:49;24.63;;;10.70;;
35434;SDS011;21556;55.782;37.528;2023-01-15T04:18:17;16.25;;;9.18;;
35434;SDS011;21556;55.782;37.528;2023-01-15T04:20:43;22.00;;;9.77;;
35434;SDS011;21556;55.782;37.528;2023-01-15T04:23:10;22.20;;;11.17;;
35434;SDS011;21556;55.782;37.528;2023-01-15T04:25:35;14.93;;;8.90;;
35434;SDS011;21556;55.782;37.528;2023-01-15T04:28:01;18.93;;;10.03;;
35434;SDS011;21556;55.782;37.528;2023-01-15T04:30:27;16.97;;;9.50;;
35434;SDS011;21556;55.782;37.528;2023-01-15T04:32:54;20.00;;;11.03;;
35434;SDS011;21556;55.782;37.528;2023-01-15T04:35:20;17.67;;;10.13;;
35434;SDS011;21556;55.782;37.528;2023-01-15T04:37:45;23.07;;;11.43;;
35434;SDS011;21556;55.782;37.528;2023-01-15T04:40:11;18.80;;;10.27;;
35434;SDS011;21556;55.782;37.528;2023-01-15T04:43:00;20.43;;;11.47;;
35434;SDS011;21556;55.782;37.528;2023-01-15T04:45:44;21.13;;;11.87;;
35434;SDS011;21556;55.782;37.528;2023-01-15T04:48:10;22.43;;;12.43;;
35434;SDS011;21556;55.782;37.528;2023-01-15T04:50:37;17.17;;;9.80;;
35434;SDS011;21556;55.782;37.528;2023-01-15T04:53:02;18.93;;;10.30;;
35434;SDS011;21556;55.782;37.528;2023-01-15T04:55:28;22.00;;;9.93;;
35434;SDS011;21556;55.782;37.528;2023-01-15T04:57:54;22.03;;;11.33;;
35434;SDS011;21556;55.782;37.528;2023-01-15T05:00:20;19.03;;;10.67;;
35434;SDS011;21556;55.782;37.528;2023-01-15T05:02:47;18.87;;;10.73;;
35434;SDS011;21556;55.782;37.528;2023-01-15T05:05:14;21.13;;;11.00;;
35434;SDS011;21556;55.782;37.528;2023-01-15T05:07:40;24.07;;;11.53;;
35434;SDS011;21556;55.782;37.528;2023-01-15T05:10:06;22.67;;;11.80;;
35434;SDS011;21556;55.782;37.528;2023-01-15T05:12:33;21.58;;;9.85;;
35434;SDS011;21556;55.782;37.528;2023-01-15T05:14:59;22.00;;;10.77;;
35434;SDS011;21556;55.782;37.528;2023-01-15T05:17:27;20.33;;;9.77;;
35434;SDS011;21556;55.782;37.528;2023-01-15T05:19:53;21.77;;;10.50;;
35434;SDS011;21556;55.782;37.528;2023-01-15T05:22:19;20.03;;;11.03;;
35434;SDS011;21556;55.782;37.528;2023-01-15T05:24:46;20.40;;;10.63;;
35434;SDS011;21556;55.782;37.528;2023-01-15T05:27:11;17.30;;;10.50;;
35434;SDS011;21556;55.782;37.528;2023-01-15T05:29:37;20.33;;;10.60;;
35434;SDS011;21556;55.782;37.528;2023-01-15T05:32:03;16.70;;;9.37;;
35434;SDS011;21556;55.782;37.528;2023-01-15T05:34:29;26.57;;;10.20;;
35434;SDS011;21556;55.782;37.528;2023-01-15T05:36:55;21.60;;;8.50;;
35434;SDS011;21556;55.782;37.528;2023-01-15T05:39:21;22.07;;;9.93;;
35434;SDS011;21556;55.782;37.528;2023-01-15T05:41:46;22.77;;;11.03;;
35434;SDS011;21556;55.782;37.528;2023-01-15T05:46:41;16.77;;;10.17;;
35434;SDS011;21556;55.782;37.528;2023-01-15T05:49:12;18.13;;;10.60;;
35434;SDS011;21556;55.782;37.528;2023-01-15T05:51:39;23.60;;;10.40;;
35434;SDS011;21556;55.782;37.528;2023-01-15T05:54:06;26.63;;;11.57;;
35434;SDS011;21556;55.782;37.528;2023-01-15T05:56:34;23.15;;;10.45;;
35434;SDS011;21556;55.782;37.528;2023-01-15T05:59:01;23.00;;;10.90;;
35434;SDS011;21556;55.782;37.528;2023-01-15T06:01:27;22.27;;;9.60;;
35434;SDS011;21556;55.782;37.528;2023-01-15T06:03:58;21.35;;;10.18;;
35434;SDS011;21556;55.782;37.528;2023-01-15T06:06:24;24.63;;;9.87;;
35434;SDS011;21556;55.782;37.528;2023-01-15T06:08:50;24.27;;;10.90;;
35434;SDS011;21556;55.782;37.528;2023-01-15T06:11:17;24.43;;;11.10;;
35434;SDS011;21556;55.782;37.528;2023-01-15T06:13:42;22.73;;;11.10;;
35434;SDS011;21556;55.782;37.528;2023-01-15T06:16:08;22.80;;;10.73;;
35434;SDS011;21556;55.782;37.528;2023-01-15T06:18:43;25.40;;;10.17;;
35434;SDS011;21556;55.782;37.528;2023-01-15T06:21:12;20.13;;;10.27;;
35434;SDS011;21556;55.782;37.528;2023-01-15T06:23:38;18.43;;;10.63;;
35434;SDS011;21556;55.782;37.528;2023-01-15T06:26:09;24.47;;;11.00;;
35434;SDS011;21556;55.782;37.528;2023-01-15T06:28:38;26.90;;;11.37;;
35434;SDS011;21556;55.782;37.528;2023-01-15T06:31:05;25.00;;;10.87;;
35434;SDS011;21556;55.782;37.528;2023-01-15T06:33:31;26.60;;;10.57;;
35434;SDS011;21556;55.782;37.528;2023-01-15T06:36:07;21.93;;;9.47;;
35434;SDS011;21556;55.782;37.528;2023-01-15T06:38:34;20.60;;;10.57;;
35434;SDS011;21556;55.782;37.528;2023-01-15T06:41:00;28.00;;;11.30;;
35434;SDS011;21556;55.782;37.528;2023-01-15T06:43:26;29.43;;;10.87;;
35434;SDS011;21556;55.782;37.528;2023-01-15T06:46:11;29.47;;;9.77;;
35434;SDS011;21556;55.782;37.528;2023-01-15T06:48:57;27.20;;;11.57;;
35434;SDS011;21556;55.782;37.528;2023-01-15T06:51:23;24.20;;;10.33;;
35434;SDS011;21556;55.782;37.528;2023-01-15T06:53:50;24.67;;;11.47;;
35434;SDS011;21556;55.782;37.528;2023-01-15T06:56:20;29.93;;;10.20;;
35434;SDS011;21556;55.782;37.528;2023-01-15T06:58:50;30.23;;;13.10;;
35434;SDS011;21556;55.782;37.528;2023-01-15T07:01:24;20.17;;;10.73;;
35434;SDS011;21556;55.782;37.528;2023-01-15T07:04:04;23.08;;;10.00;;
35434;SDS011;21556;55.782;37.528;2023-01-15T07:06:40;25.33;;;10.53;;
35434;SDS011;21556;55.782;37.528;2023-01-15T07:09:06;28.50;;;10.90;;
35434;SDS011;21556;55.782;37.528;2023-01-15T07:11:31;26.43;;;11.00;;
35434;SDS011;21556;55.782;37.528;2023-01-15T07:14:01;23.43;;;11.27;;
35434;SDS011;21556;55.782;37.528;2023-01-15T07:16:31;23.53;;;10.50;;
35434;SDS011;21556;55.782;37.528;2023-01-15T07:18:56;24.17;;;11.43;;
35434;SDS011;21556;55.782;37.528;2023-01-15T07:21:22;26.23;;;11.00;;
35434;SDS011;21556;55.782;37.528;2023-01-15T07:23:48;35.23;;;11.43;;
35434;SDS011;21556;55.782;37.528;2023-01-15T07:26:14;27.00;;;11.70;;
35434;SDS011;21556;55.782;37.528;2023-01-15T07:28:39;24.87;;;12.00;;
35434;SDS011;21556;55.782;37.528;2023-01-15T07:31:05;22.57;;;11.83;;
35434;SDS011;21556;55.782;37.528;2023-01-15T07:33:32;23.47;;;11.97;;
35434;SDS011;21556;55.782;37.528;2023-01-15T07:36:00;17.40;;;10.83;;
35434;SDS011;21556;55.782;37.528;2023-01-15T07:38:27;28.27;;;12.13;;
35434;SDS011;21556;55.782;37.528;2023-01-15T07:40:54;33.20;;;12.43;;
35434;SDS011;21556;55.782;37.528;2023-01-15T07:43:40;23.58;;;11.25;;
35434;SDS011;21556;55.782;37.528;2023-01-15T07:46:25;22.43;;;11.37;;
35434;SDS011;21556;55.782;37.528;2023-01-15T07:49:09;27.50;;;12.17;;
35434;SDS011;21556;55.782;37.528;2023-01-15T07:51:53;27.87;;;10.43;;
35434;SDS011;21556;55.782;37.528;2023-01-15T07:54:19;18.57;;;9.43;;
35434;SDS011;21556;55.782;37.528;2023-01-15T07:56:44;24.93;;;11.13;;
35434;SDS011;21556;55.782;37.528;2023-01-15T07:59:10;24.27;;;10.80;;
35434;SDS011;21556;55.782;37.528;2023-01-15T08:01:40;25.03;;;12.43;;
35434;SDS011;21556;55.782;37.528;2023-01-15T08:04:10;24.27;;;10.40;;
35434;SDS011;21556;55.782;37.528;2023-01-15T08:06:35;21.93;;;11.13;;
35434;SDS011;21556;55.782;37.528;2023-01-15T08:09:13;31.93;;;11.50;;
35434;SDS011;21556;55.782;37.528;2023-01-15T08:11:41;23.40;;;12.25;;
35434;SDS011;21556;55.782;37.528;2023-01-15T08:14:25;22.53;;;10.73;;
35434;SDS011;21556;55.782;37.528;2023-01-15T08:17:10;27.20;;;11.47;;
35434;SDS011;21556;55.782;37.528;2023-01-15T08:19:36;27.23;;;12.37;;
35434;SDS011;21556;55.782;37.528;2023-01-15T08:24:30;19.77;;;10.60;;
35434;SDS011;21556;55.782;37.528;2023-01-15T08:26:56;20.73;;;11.27;;
35434;SDS011;21556;55.782;37.528;2023-01-15T08:29:22;19.97;;;9.90;;
35434;SDS011;21556;55.782;37.528;2023-01-15T08:31:50;20.53;;;11.13;;
35434;SDS011;21556;55.782;37.528;2023-01-15T08:34:16;25.20;;;12.57;;
35434;SDS011;21556;55.782;37.528;2023-01-15T08:36:53;21.30;;;10.43;;
35434;SDS011;21556;55.782;37.528;2023-01-15T08:39:25;19.15;;;11.20;;
35434;SDS011;21556;55.782;37.528;2023-01-15T08:41:53;24.50;;;10.80;;
35434;SDS011;21556;55.782;37.528;2023-01-15T08:44:20;16.70;;;10.77;;
35434;SDS011;21556;55.782;37.528;2023-01-15T08:46:46;23.27;;;11.07;;
35434;SDS011;21556;55.782;37.528;2023-01-15T08:49:12;30.80;;;12.60;;
35434;SDS011;21556;55.782;37.528;2023-01-15T08:51:38;23.53;;;10.80;;
35434;SDS011;21556;55.782;37.528;2023-01-15T08:54:04;21.10;;;11.00;;
35434;SDS011;21556;55.782;37.528;2023-01-15T08:56:30;25.57;;;11.90;;
35434;SDS011;21556;55.782;37.528;2023-01-15T08:59:06;20.37;;;10.80;;
35434;SDS011;21556;55.782;37.528;2023-01-15T09:01:48;20.00;;;11.10;;
35434;SDS011;21556;55.782;37.528;2023-01-15T09:04:44;24.93;;;11.27;;
35434;SDS011;21556;55.782;37.528;2023-01-15T09:07:20;26.57;;;10.83;;
35434;SDS011;21556;55.782;37.528;2023-01-15T09:09:52;20.30;;;11.17;;
35434;SDS011;21556;55.782;37.528;2023-01-15T09:12:19;20.77;;;10.37;;
35434;SDS011;21556;55.782;37.528;2023-01-15T09:14:49;21.20;;;10.50;;
35434;SDS011;21556;55.782;37.528;2023-01-15T09:17:14;21.90;;;10.80;;
35434;SDS011;21556;55.782;37.528;2023-01-15T09:19:40;28.07;;;10.07;;
35434;SDS011;21556;55.782;37.528;2023-01-15T09:22:06;22.57;;;10.30;;
35434;SDS011;21556;55.782;37.528;2023-01-15T09:24:35;16.03;;;9.73;;
35434;SDS011;21556;55.782;37.528;2023-01-15T09:27:01;21.07;;;11.23;;
35434;SDS011;21556;55.782;37.528;2023-01-15T09:29:27;21.50;;;11.70;;
35434;SDS011;21556;55.782;37.528;2023-01-15T09:31:52;22.30;;;9.93;;
35434;SDS011;21556;55.782;37.528;2023-01-15T09:34:21;23.10;;;11.40;;
35434;SDS011;21556;55.782;37.528;2023-01-15T09:36:46;18.08;;;10.77;;
35434;SDS011;21556;55.782;37.528;2023-01-15T09:39:12;25.07;;;11.60;;
35434;SDS011;21556;55.782;37.528;2023-01-15T09:47:00;20.93;;;10.13;;
35434;SDS011;21556;55.782;37.528;2023-01-15T09:49:33;22.63;;;10.77;;
35434;SDS011;21556;55.782;37.528;2023-01-15T09:52:11;18.97;;;10.60;;
35434;SDS011;21556;55.782;37.528;2023-01-15T09:57:22;18.13;;;10.67;;
35434;SDS011;21556;55.782;37.528;2023-01-15T09:59:49;21.17;;;10.43;;
35434;SDS011;21556;55.782;37.528;2023-01-15T10:02:21;25.53;;;10.53;;
35434;SDS011;21556;55.782;37.528;2023-01-15T10:04:48;20.83;;;10.90;;
35434;SDS011;21556;55.782;37.528;2023-01-15T10:07:18;26.97;;;10.50;;
35434;SDS011;21556;55.782;37.528;2023-01-15T10:09:46;19.38;;;11.40;;
35434;SDS011;21556;55.782;37.528;2023-01-15T10:12:19;20.67;;;10.63;;
35434;SDS011;21556;55.782;37.528;2023-01-15T10:17:38;18.97;;;10.70;;
35434;SDS011;21556;55.782;37.528;2023-01-15T10:20:16;18.63;;;10.77;;
35434;SDS011;21556;55.782;37.528;2023-01-15T10:25:24;17.07;;;9.00;;
35434;SDS011;21556;55.782;37.528;2023-01-15T10:30:30;17.70;;;10.33;;
35434;SDS011;21556;55.782;37.528;2023-01-15T10:32:57;20.30;;;10.07;;
35434;SDS011;21556;55.782;37.528;2023-01-15T10:37:55;16.87;;;10.33;;
35434;SDS011;21556;55.782;37.528;2023-01-15T10:45:54;18.50;;;9.13;;
35434;SDS011;21556;55.782;37.528;2023-01-15T10:48:27;16.73;;;9.60;;
35434;SDS011;21556;55.782;37.528;2023-01-15T10:50:54;10.90;;;6.90;;
35434;SDS011;21556;55.782;37.528;2023-01-15T10:55:49;19.00;;;8.93;;
35434;SDS011;21556;55.782;37.528;2023-01-15T11:00:42;19.47;;;9.47;;
35434;SDS011;21556;55.782;37.528;2023-01-15T11:03:18;16.87;;;8.53;;
35434;SDS011;21556;55.782;37.528;2023-01-15T11:05:45;16.83;;;8.93;;
35434;SDS011;21556;55.782;37.528;2023-01-15T11:08:13;19.10;;;8.27;;
35434;SDS011;21556;55.782;37.528;2023-01-15T11:10:40;21.03;;;8.90;;
35434;SDS011;21556;55.782;37.528;2023-01-15T11:13:24;16.67;;;7.87;;
35434;SDS011;21556;55.782;37.528;2023-01-15T11:16:27;16.73;;;9.40;;
35434;SDS011;21556;55.782;37.528;2023-01-15T11:19:33;17.83;;;8.50;;
35434;SDS011;21556;55.782;37.528;2023-01-15T11:22:16;13.00;;;8.77;;
35434;SDS011;21556;55.782;37.528;2023-01-15T11:24:49;12.17;;;8.27;;
35434;SDS011;21556;55.782;37.528;2023-01-15T11:27:19;18.23;;;9.17;;
35434;SDS011;21556;55.782;37.528;2023-01-15T11:29:54;15.50;;;8.70;;
35434;SDS011;21556;55.782;37.528;2023-01-15T11:32:33;21.20;;;9.00;;
35434;SDS011;21556;55.782;37.528;2023-01-15T11:35:20;16.97;;;7.90;;
35434;SDS011;21556;55.782;37.528;2023-01-15T11:37:44;12.93;;;7.63;;
35434;SDS011;21556;55.782;37.528;2023-01-15T11:40:17;18.57;;;7.80;;
35434;SDS011;21556;55.782;37.528;2023-01-15T11:42:47;12.57;;;7.03;;
35434;SDS011;21556;55.782;37.528;2023-01-15T11:48:17;12.47;;;6.80;;
35434;SDS011;21556;55.782;37.528;2023-01-15T11:53:28;14.73;;;7.47;;
35434;SDS011;21556;55.782;37.528;2023-01-15T11:56:02;11.47;;;6.43;;
35434;SDS011;21556;55.782;37.528;2023-01-15T11:58:31;10.87;;;6.70;;
35434;SDS011;21556;55.782;37.528;2023-01-15T12:00:58;16.10;;;6.35;;
35434;SDS011;21556;55.782;37.528;2023-01-15T12:03:25;11.40;;;6.70;;
35434;SDS011;21556;55.782;37.528;2023-01-15T12:05:53;13.45;;;6.57;;
35434;SDS011;21556;55.782;37.528;2023-01-15T12:11:04;17.70;;;6.13;;
35434;SDS011;21556;55.782;37.528;2023-01-15T12:16:26;12.33;;;6.40;;
35434;SDS011;21556;55.782;37.528;2023-01-15T12:19:00;10.80;;;5.60;;
35434;SDS011;21556;55.782;37.528;2023-01-15T12:26:48;13.83;;;6.00;;
35434;SDS011;21556;55.782;37.528;2023-01-15T12:29:31;16.93;;;7.20;;
35434;SDS011;21556;55.782;37.528;2023-01-15T12:32:10;14.73;;;6.17;;
35434;SDS011;21556;55.782;37.528;2023-01-15T12:37:13;11.57;;;6.47;;
35434;SDS011;21556;55.782;37.528;2023-01-15T12:39:46;11.07;;;5.90;;
35434;SDS011;21556;55.782;37.528;2023-01-15T12:42:14;11.10;;;5.60;;
35434;SDS011;21556;55.782;37.528;2023-01-15T12:45:06;13.23;;;6.03;;
35434;SDS011;21556;55.782;37.528;2023-01-15T12:47:44;15.33;;;6.30;;
35434;SDS011;21556;55.782;37.528;2023-01-15T12:58:15;17.60;;;6.50;;
35434;SDS011;21556;55.782;37.528;2023-01-15T13:00:44;14.90;;;6.87;;
35434;SDS011;21556;55.782;37.528;2023-01-15T13:03:44;10.70;;;6.07;;
35434;SDS011;21556;55.782;37.528;2023-01-15T13:06:12;17.30;;;6.70;;
35434;SDS011;21556;55.782;37.528;2023-01-15T13:08:59;14.83;;;8.43;;
35434;SDS011;21556;55.782;37.528;2023-01-15T13:11:30;12.03;;;6.50;;
35434;SDS011;21556;55.782;37.528;2023-01-15T13:13:56;18.67;;;6.20;;
35434;SDS011;21556;55.782;37.528;2023-01-15T13:21:56;10.67;;;5.30;;
35434;SDS011;21556;55.782;37.528;2023-01-15T13:29:41;14.20;;;4.97;;
35434;SDS011;21556;55.782;37.528;2023-01-15T13:32:18;14.23;;;5.63;;
35434;SDS011;21556;55.782;37.528;2023-01-15T13:37:17;10.90;;;6.03;;
35434;SDS011;21556;55.782;37.528;2023-01-15T13:39:46;9.00;;;5.13;;
35434;SDS011;21556;55.782;37.528;2023-01-15T13:42:17;11.70;;;5.40;;
35434;SDS011;21556;55.782;37.528;2023-01-15T13:44:57;10.97;;;5.23;;
35434;SDS011;21556;55.782;37.528;2023-01-15T13:50:25;12.13;;;5.80;;
35434;SDS011;21556;55.782;37.528;2023-01-15T13:52:42;13.67;;;5.67;;
35434;SDS011;21556;55.782;37.528;2023-01-15T13:57:39;9.73;;;5.20;;
35434;SDS011;21556;55.782;37.528;2023-01-15T14:02:37;11.17;;;5.77;;
35434;SDS011;21556;55.782;37.528;2023-01-15T14:05:25;9.20;;;4.07;;
35434;SDS011;21556;55.782;37.528;2023-01-15T14:07:52;10.70;;;5.53;;
35434;SDS011;21556;55.782;37.528;2023-01-15T14:10:58;11.60;;;4.67;;
35434;SDS011;21556;55.782;37.528;2023-01-15T14:16:42;11.10;;;5.83;;
35434;SDS011;21556;55.782;37.528;2023-01-15T14:19:19;9.03;;;4.77;;
35434;SDS011;21556;55.782;37.528;2023-01-15T14:22:13;9.77;;;5.47;;
35434;SDS011;21556;55.782;37.528;2023-01-15T14:24:58;12.35;;;5.47;;
35434;SDS011;21556;55.782;37.528;2023-01-15T14:35:18;13.63;;;5.03;;
35434;SDS011;21556;55.782;37.528;2023-01-15T14:40:29;11.63;;;5.63;;
35434;SDS011;21556;55.782;37.528;2023-01-15T14:43:14;12.33;;;5.80;;
35434;SDS011;21556;55.782;37.528;2023-01-15T14:49:27;12.17;;;5.07;;
35434;SDS011;21556;55.782;37.528;2023-01-15T14:51:59;16.27;;;5.87;;
35434;SDS011;21556;55.782;37.528;2023-01-15T14:54:32;8.97;;;5.40;;
35434;SDS011;21556;55.782;37.528;2023-01-15T14:57:01;15.10;;;6.30;;
35434;SDS011;21556;55.782;37.528;2023-01-15T14:59:48;11.33;;;5.77;;
35434;SDS011;21556;55.782;37.528;2023-01-15T15:02:24;13.63;;;5.67;;
35434;SDS011;21556;55.782;37.528;2023-01-15T15:05:20;11.10;;;6.43;;
35434;SDS011;21556;55.782;37.528;2023-01-15T15:07:52;13.25;;;7.82;;
35434;SDS011;21556;55.782;37.528;2023-01-15T15:10:34;12.00;;;6.03;;
35434;SDS011;21556;55.782;37.528;2023-01-15T15:13:15;10.47;;;6.20;;
35434;SDS011;21556;55.782;37.528;2023-01-15T15:18:32;13.77;;;6.50;;
35434;SDS011;21556;55.782;37.528;2023-01-15T15:21:21;10.67;;;6.00;;
35434;SDS011;21556;55.782;37.528;2023-01-15T15:24:04;9.43;;;5.30;;
35434;SDS011;21556;55.782;37.528;2023-01-15T15:26:38;10.30;;;6.30;;
35434;SDS011;21556;55.782;37.528;2023-01-15T15:31:59;9.97;;;6.43;;
35434;SDS011;21556;55.782;37.528;2023-01-15T15:34:36;7.33;;;3.90;;
35434;SDS011;21556;55.782;37.528;2023-01-15T15:37:42;11.73;;;6.17;;
35434;SDS011;21556;55.782;37.528;2023-01-15T15:45:50;8.80;;;5.47;;
35434;SDS011;21556;55.782;37.528;2023-01-15T15:48:40;16.50;;;6.53;;
35434;SDS011;21556;55.782;37.528;2023-01-15T15:56:55;11.32;;;5.05;;
35434;SDS011;21556;55.782;37.528;2023-01-15T15:59:45;9.03;;;5.00;;
35434;SDS011;21556;55.782;37.528;2023-01-15T16:02:18;16.33;;;6.67;;
35434;SDS011;21556;55.782;37.528;2023-01-15T16:04:54;11.37;;;7.17;;
35434;SDS011;21556;55.782;37.528;2023-01-15T16:07:28;14.03;;;7.47;;
35434;SDS011;21556;55.782;37.528;2023-01-15T16:10:02;6.82;;;4.10;;
35434;SDS011;21556;55.782;37.528;2023-01-15T16:12:35;9.53;;;5.57;;
35434;SDS011;21556;55.782;37.528;2023-01-15T16:15:04;11.20;;;5.83;;
35434;SDS011;21556;55.782;37.528;2023-01-15T16:17:30;8.33;;;5.67;;
35434;SDS011;21556;55.782;37.528;2023-01-15T16:20:03;10.57;;;6.10;;
35434;SDS011;21556;55.782;37.528;2023-01-15T16:22:36;11.57;;;5.97;;
35434;SDS011;21556;55.782;37.528;2023-01-15T16:25:30;9.33;;;5.90;;
35434;SDS011;21556;55.782;37.528;2023-01-15T16:28:00;10.43;;;5.33;;
35434;SDS011;21556;55.782;37.528;2023-01-15T16:30:28;11.60;;;6.37;;
35434;SDS011;21556;55.782;37.528;2023-01-15T16:33:06;12.50;;;6.90;;
35434;SDS011;21556;55.782;37.528;2023-01-15T16:35:54;7.57;;;5.28;;
35434;SDS011;21556;55.782;37.528;2023-01-15T16:38:31;14.07;;;6.60;;
35434;SDS011;21556;55.782;37.528;2023-01-15T16:41:00;10.57;;;5.17;;
35434;SDS011;21556;55.782;37.528;2023-01-15T16:43:30;8.80;;;5.67;;
35434;SDS011;21556;55.782;37.528;2023-01-15T16:48:40;8.90;;;4.93;;
35434;SDS011;21556;55.782;37.528;2023-01-15T16:51:23;12.17;;;6.53;;
35434;SDS011;21556;55.782;37.528;2023-01-15T16:56:55;9.63;;;6.03;;
35434;SDS011;21556;55.782;37.528;2023-01-15T17:09:25;8.93;;;7.03;;
35434;SDS011;21556;55.782;37.528;2023-01-15T17:11:52;9.88;;;5.30;;
35434;SDS011;21556;55.782;37.528;2023-01-15T17:14:38;13.37;;;7.77;;
35434;SDS011;21556;55.782;37.528;2023-01-15T17:19:49;14.03;;;8.80;;
35434;SDS011;21556;55.782;37.528;2023-01-15T17:22:31;16.20;;;8.73;;